createdAt,value
2023-11-04T00:02:20.971Z,4.00
2023-11-04T00:07:23.981Z,5.90
2023-11-04T00:12:27.027Z,5.50
2023-11-04T00:17:30.533Z,4.90
2023-11-04T00:22:33.520Z,6.90
2023-11-04T00:27:36.605Z,5.70
2023-11-04T00:32:39.850Z,6.40
2023-11-04T00:37:42.946Z,6.60
2023-11-04T00:42:46.188Z,4.50
2023-11-04T00:47:49.328Z,5.40
2023-11-04T00:52:52.381Z,4.90
2023-11-04T00:57:56.808Z,4.70
2023-11-04T01:02:59.872Z,5.50
2023-11-04T01:08:02.980Z,5.30
2023-11-04T01:13:05.951Z,6.90
2023-11-04T01:18:09.562Z,4.90
2023-11-04T01:23:13.314Z,5.00
2023-11-04T01:28:16.403Z,5.90
2023-11-04T01:33:19.865Z,5.10
2023-11-04T01:38:23.015Z,6.70
2023-11-04T01:43:30.884Z,4.60
2023-11-04T01:48:33.984Z,3.90
2023-11-04T01:53:38.513Z,2.30
2023-11-04T01:58:46.217Z,3.50
2023-11-04T02:03:49.162Z,2.50
2023-11-04T02:08:52.436Z,4.50
2023-11-04T02:13:55.433Z,2.10
2023-11-04T02:18:59.099Z,1.80
2023-11-04T02:24:02.278Z,2.30
2023-11-04T02:29:05.603Z,1.50
2023-11-04T02:34:08.656Z,1.30
2023-11-04T02:39:11.703Z,1.60
2023-11-04T02:44:15.124Z,1.70
2023-11-04T02:49:18.185Z,1.70
2023-11-04T02:54:21.243Z,1.00
2023-11-04T02:59:25.829Z,1.10
2023-11-04T03:04:29.047Z,1.10
2023-11-04T03:09:32.686Z,1.10
2023-11-04T03:14:36.401Z,1.00
2023-11-04T03:19:39.847Z,1.20
2023-11-04T03:24:46.524Z,1.30
2023-11-04T03:29:49.855Z,1.30
2023-11-04T03:34:52.862Z,1.20
2023-11-04T03:39:55.931Z,1.30
2023-11-04T03:44:58.976Z,0.90
2023-11-04T03:50:02.808Z,1.10
2023-11-04T03:55:06.447Z,1.30
2023-11-04T04:00:10.389Z,1.10
2023-11-04T04:05:13.504Z,1.20
2023-11-04T04:10:17.185Z,1.20
2023-11-04T04:15:20.337Z,1.40
2023-11-04T04:20:23.300Z,1.00
2023-11-04T04:25:26.207Z,2.00
2023-11-04T04:30:29.229Z,1.40
2023-11-04T04:35:32.240Z,0.90
2023-11-04T04:40:35.244Z,1.00
2023-11-04T04:45:41.972Z,1.30
2023-11-04T04:50:45.051Z,1.30
2023-11-04T04:55:48.987Z,1.20
2023-11-04T05:00:52.098Z,1.50
2023-11-04T05:05:55.419Z,1.60
2023-11-04T05:10:59.734Z,3.10
2023-11-04T05:16:02.757Z,2.00
2023-11-04T05:21:06.842Z,4.10
2023-11-04T05:26:09.864Z,2.50
2023-11-04T05:31:12.706Z,1.70
2023-11-04T05:36:19.946Z,4.00
2023-11-04T05:41:23.084Z,1.70
2023-11-04T05:46:26.090Z,1.60
2023-11-04T05:51:29.125Z,2.50
2023-11-04T05:56:32.110Z,2.10
2023-11-04T06:01:35.212Z,1.80
2023-11-04T06:06:38.309Z,2.90
2023-11-04T06:11:41.452Z,3.20
2023-11-04T06:16:44.749Z,3.20
2023-11-04T06:21:48.200Z,3.90
2023-11-04T06:26:51.289Z,2.90
2023-11-04T06:31:54.280Z,4.80
2023-11-04T06:36:57.350Z,5.00
2023-11-04T06:42:01.117Z,4.10
2023-11-04T06:47:04.228Z,3.90
2023-11-04T06:52:07.227Z,5.50
2023-11-04T06:57:10.248Z,4.80
2023-11-04T07:02:13.760Z,5.70
2023-11-04T07:07:16.864Z,4.20
2023-11-04T07:12:19.975Z,3.90
2023-11-04T07:17:23.002Z,5.00
2023-11-04T07:22:25.925Z,4.60
2023-11-04T07:27:29.399Z,4.90
2023-11-04T07:32:32.338Z,4.70
2023-11-04T07:37:35.522Z,4.90
2023-11-04T07:42:38.849Z,4.90
2023-11-04T07:47:42.567Z,5.00
2023-11-04T07:52:54.480Z,7.50
2023-11-04T07:58:02.078Z,4.30
2023-11-04T08:03:05.237Z,7.00
2023-11-04T08:08:11.496Z,8.10
2023-11-04T08:13:14.953Z,6.00
2023-11-04T08:18:18.200Z,5.90
2023-11-04T08:23:21.932Z,5.90
2023-11-04T08:28:26.683Z,7.50
2023-11-04T08:33:29.739Z,4.50
2023-11-04T08:38:34.233Z,4.50
2023-11-04T08:43:37.243Z,6.40
2023-11-04T08:48:41.994Z,7.00
2023-11-04T08:53:45.199Z,3.90
2023-11-04T08:58:48.412Z,7.90
2023-11-04T09:03:58.892Z,4.80
2023-11-04T09:09:10.613Z,5.00
2023-11-04T09:14:13.609Z,6.10
2023-11-04T09:19:17.047Z,5.30
2023-11-04T09:24:20.934Z,7.20
2023-11-04T09:29:25.690Z,4.00
2023-11-04T09:34:30.118Z,6.50
2023-11-04T09:39:33.918Z,5.70
2023-11-04T09:44:37.720Z,6.20
2023-11-04T09:49:40.777Z,7.20
2023-11-04T09:54:48.461Z,6.90
2023-11-04T09:59:51.842Z,8.30
2023-11-04T10:04:56.527Z,9.40
2023-11-04T10:09:59.754Z,8.60
2023-11-04T10:15:02.802Z,7.60
2023-11-04T10:20:12.599Z,6.90
2023-11-04T10:25:16.188Z,8.60
2023-11-04T10:30:19.600Z,8.70
2023-11-04T10:35:24.573Z,7.20
2023-11-04T10:40:28.114Z,10.10
2023-11-04T10:45:50.662Z,12.90
2023-11-04T10:51:08.928Z,9.00
2023-11-04T10:56:42.733Z,9.90
2023-11-04T11:01:48.232Z,9.30
2023-11-04T11:06:52.770Z,7.00
2023-11-04T11:12:03.546Z,10.60
2023-11-04T11:17:09.171Z,14.50
2023-11-04T11:22:25.416Z,8.90
2023-11-04T11:27:28.627Z,12.40
2023-11-04T11:32:36.363Z,9.90
2023-11-04T11:37:39.455Z,10.40
2023-11-04T11:42:42.791Z,11.10
2023-11-04T11:47:45.834Z,8.40
2023-11-04T11:52:48.984Z,8.80
2023-11-04T11:57:52.628Z,11.30
2023-11-04T12:02:56.124Z,8.70
2023-11-04T12:07:59.866Z,9.90
2023-11-04T12:13:03.125Z,10.20
2023-11-04T12:18:07.561Z,7.40
2023-11-04T12:23:12.062Z,9.40
2023-11-04T12:28:15.520Z,9.70
2023-11-04T12:33:21.256Z,8.90
2023-11-04T12:38:25.169Z,11.80
2023-11-04T12:43:29.403Z,7.90
2023-11-04T12:48:33.137Z,11.10
2023-11-04T12:53:36.433Z,12.80
2023-11-04T12:58:39.905Z,11.90
2023-11-04T13:03:43.414Z,11.80
2023-11-04T13:08:46.597Z,10.80
2023-11-04T13:13:49.597Z,11.40
2023-11-04T13:18:53.320Z,10.00
2023-11-04T13:23:56.424Z,13.90
2023-11-04T13:28:59.942Z,13.40
2023-11-04T13:34:03.548Z,9.20
2023-11-04T13:39:12.477Z,12.00
2023-11-04T13:44:16.128Z,11.30
2023-11-04T13:49:19.793Z,10.40
2023-11-04T13:54:23.476Z,10.80
2023-11-04T13:59:26.581Z,8.80
2023-11-04T14:04:29.635Z,10.00
2023-11-04T14:09:32.807Z,7.70
2023-11-04T14:14:36.154Z,12.10
2023-11-04T14:19:39.559Z,10.70
2023-11-04T14:24:42.715Z,13.40
2023-11-04T14:29:46.259Z,6.90
2023-11-04T14:34:50.101Z,8.60
2023-11-04T14:39:54.163Z,9.60
2023-11-04T14:44:57.749Z,10.90
2023-11-04T14:50:02.398Z,12.30
2023-11-04T14:55:07.704Z,10.90
2023-11-04T15:00:11.900Z,7.00
2023-11-04T15:05:14.932Z,12.10
2023-11-04T15:10:18.158Z,9.00
2023-11-04T15:15:21.210Z,7.50
2023-11-04T15:20:24.222Z,14.00
2023-11-04T15:25:27.240Z,16.90
2023-11-04T15:30:30.591Z,14.00
2023-11-04T15:35:34.406Z,19.80
2023-11-04T15:40:38.907Z,18.10
2023-11-04T15:45:42.040Z,15.20
2023-11-04T15:50:45.450Z,17.90
2023-11-04T15:55:48.698Z,17.20
2023-11-04T16:00:55.155Z,16.30
2023-11-04T16:05:58.135Z,15.40
2023-11-04T16:11:01.490Z,14.50
2023-11-04T16:16:07.097Z,22.20
2023-11-04T16:21:10.126Z,19.90
2023-11-04T16:26:14.547Z,13.40
2023-11-04T16:31:24.383Z,21.40
2023-11-04T16:36:27.693Z,15.60
2023-11-04T16:41:30.656Z,23.00
2023-11-04T16:46:33.674Z,14.40
2023-11-04T16:51:36.881Z,13.50
2023-11-04T16:56:40.197Z,26.00
2023-11-04T17:01:43.195Z,17.70
2023-11-04T17:06:46.221Z,16.20
2023-11-04T17:11:49.312Z,16.20
2023-11-04T17:16:52.523Z,20.70
2023-11-04T17:21:55.969Z,14.50
2023-11-04T17:26:59.047Z,15.70
2023-11-04T17:32:02.069Z,20.60
2023-11-04T17:37:05.132Z,16.20
2023-11-04T17:42:08.169Z,17.60
2023-11-04T17:47:11.180Z,14.80
2023-11-04T17:52:14.233Z,15.80
2023-11-04T17:57:17.293Z,13.20
2023-11-04T18:02:20.315Z,19.10
2023-11-04T18:07:25.193Z,11.00
2023-11-04T18:12:28.369Z,13.40
2023-11-04T18:17:31.445Z,13.00
2023-11-04T18:22:34.894Z,15.10
2023-11-04T18:27:51.089Z,16.70
2023-11-04T18:33:01.639Z,17.40
2023-11-04T18:38:04.849Z,17.80
2023-11-04T18:43:08.227Z,18.20
2023-11-04T18:48:11.416Z,18.90
2023-11-04T18:53:14.837Z,16.00
2023-11-04T18:58:17.963Z,17.50
2023-11-04T19:03:21.059Z,13.50
2023-11-04T19:08:25.103Z,17.90
2023-11-04T19:13:28.232Z,13.50
2023-11-04T19:18:31.486Z,15.20
2023-11-04T19:23:35.605Z,19.90
2023-11-04T19:28:38.670Z,13.20
2023-11-04T19:33:41.840Z,18.90
2023-11-04T19:38:45.110Z,17.70
2023-11-04T19:43:48.937Z,17.50
2023-11-04T19:48:52.252Z,13.10
2023-11-04T19:53:55.639Z,22.20
2023-11-04T19:58:58.984Z,17.70
2023-11-04T20:04:02.950Z,18.90
2023-11-04T20:09:07.226Z,15.40
2023-11-04T20:14:11.042Z,41.90
2023-11-04T20:19:16.414Z,16.00
2023-11-04T20:24:22.273Z,15.30
2023-11-04T20:29:26.106Z,25.60
2023-11-04T20:34:29.357Z,15.80
2023-11-04T20:39:33.044Z,14.90
2023-11-04T20:44:36.352Z,19.30
2023-11-04T20:49:40.040Z,15.90
2023-11-04T20:54:43.489Z,10.00
2023-11-04T20:59:47.013Z,15.90
2023-11-04T21:04:50.130Z,15.30
2023-11-04T21:09:53.510Z,8.60
2023-11-04T21:14:56.961Z,14.00
2023-11-04T21:20:00.986Z,9.90
2023-11-04T21:25:04.206Z,14.20
2023-11-04T21:30:08.944Z,15.10
2023-11-04T21:35:12.057Z,14.00
2023-11-04T21:40:15.291Z,16.60
2023-11-04T21:45:19.566Z,10.50
2023-11-04T21:50:26.800Z,12.30
2023-11-04T21:55:29.763Z,14.40
2023-11-04T22:00:32.817Z,11.60
2023-11-04T22:05:37.357Z,15.60
2023-11-04T22:10:41.693Z,14.50
2023-11-04T22:15:45.116Z,12.30
2023-11-04T22:20:48.122Z,12.70
2023-11-04T22:25:51.474Z,12.70
2023-11-04T22:30:54.580Z,20.20
2023-11-04T22:35:57.554Z,12.50
2023-11-04T22:41:02.267Z,13.10
2023-11-04T22:46:06.047Z,13.50
2023-11-04T22:51:09.039Z,16.80
2023-11-04T22:56:12.042Z,18.10
2023-11-04T23:01:21.253Z,22.20
2023-11-04T23:06:26.959Z,16.60
2023-11-04T23:11:32.184Z,14.10
2023-11-04T23:16:35.609Z,12.10
2023-11-04T23:21:38.646Z,13.90
2023-11-04T23:26:41.686Z,11.90
2023-11-04T23:31:44.766Z,13.90
2023-11-04T23:36:47.779Z,10.80
2023-11-04T23:41:50.990Z,11.60
2023-11-04T23:46:54.088Z,13.20
2023-11-04T23:51:57.206Z,11.60
2023-11-04T23:57:00.204Z,13.40
